createdAt,value
2023-09-27T00:00:47.710Z,9.38
2023-09-27T00:03:14.321Z,9.82
2023-09-27T00:05:41.110Z,9.60
2023-09-27T00:08:07.774Z,9.73
2023-09-27T00:10:34.598Z,9.30
2023-09-27T00:13:01.118Z,10.20
2023-09-27T00:15:27.561Z,9.23
2023-09-27T00:17:55.309Z,9.63
2023-09-27T00:20:22.987Z,11.98
2023-09-27T00:22:49.864Z,9.60
2023-09-27T00:25:16.467Z,11.18
2023-09-27T00:27:43.254Z,9.52
2023-09-27T00:30:14.456Z,9.80
2023-09-27T00:32:42.126Z,9.02
2023-09-27T00:35:15.878Z,10.60
2023-09-27T00:37:42.569Z,10.68
2023-09-27T00:40:13.082Z,9.52
2023-09-27T00:42:39.896Z,9.13
2023-09-27T00:45:07.886Z,9.80
2023-09-27T00:47:34.892Z,9.55
2023-09-27T00:50:01.529Z,9.50
2023-09-27T00:52:28.401Z,9.90
2023-09-27T00:54:55.209Z,9.38
2023-09-27T00:57:23.195Z,9.52
2023-09-27T00:59:50.887Z,9.40
2023-09-27T01:02:17.968Z,10.13
2023-09-27T01:04:44.832Z,9.02
2023-09-27T01:07:11.378Z,9.20
2023-09-27T01:09:38.772Z,9.52
2023-09-27T01:12:06.042Z,10.50
2023-09-27T01:14:32.571Z,9.05
2023-09-27T01:17:11.625Z,9.93
2023-09-27T01:19:39.878Z,9.23
2023-09-27T01:22:06.403Z,9.60
2023-09-27T01:24:36.526Z,9.20
2023-09-27T01:27:05.734Z,9.73
2023-09-27T01:29:32.188Z,9.98
2023-09-27T01:31:58.679Z,9.70
2023-09-27T01:34:25.169Z,9.68
2023-09-27T01:36:52.340Z,9.10
2023-09-27T01:41:46.080Z,10.43
2023-09-27T01:44:13.050Z,10.50
2023-09-27T01:46:39.850Z,8.73
2023-09-27T01:49:06.288Z,8.77
2023-09-27T01:51:32.699Z,9.15
2023-09-27T01:53:59.411Z,8.55
2023-09-27T01:56:25.887Z,11.02
2023-09-27T01:58:52.644Z,9.23
2023-09-27T02:01:19.248Z,9.45
2023-09-27T02:03:45.914Z,8.85
2023-09-27T02:06:12.670Z,8.60
2023-09-27T02:08:39.155Z,9.20
2023-09-27T02:11:05.590Z,8.65
2023-09-27T02:13:32.125Z,8.90
2023-09-27T02:15:58.670Z,9.38
2023-09-27T02:18:25.252Z,9.18
2023-09-27T02:20:51.956Z,8.95
2023-09-27T02:23:19.060Z,8.65
2023-09-27T02:28:11.945Z,8.35
2023-09-27T02:30:39.330Z,8.85
2023-09-27T02:33:05.813Z,7.95
2023-09-27T02:35:32.386Z,9.38
2023-09-27T02:37:58.958Z,9.05
2023-09-27T02:40:25.468Z,9.52
2023-09-27T02:42:51.961Z,9.63
2023-09-27T02:45:18.568Z,9.27
2023-09-27T02:47:45.685Z,8.75
2023-09-27T02:50:13.098Z,9.65
2023-09-27T02:52:40.075Z,9.02
2023-09-27T02:55:09.995Z,9.00
2023-09-27T02:57:37.323Z,8.70
2023-09-27T03:00:04.875Z,9.80
2023-09-27T03:02:34.853Z,9.07
2023-09-27T03:05:04.249Z,9.15
2023-09-27T03:07:30.740Z,7.85
2023-09-27T03:09:59.748Z,8.48
2023-09-27T03:12:26.240Z,9.15
2023-09-27T03:14:52.740Z,8.93
2023-09-27T03:17:19.204Z,9.40
2023-09-27T03:19:47.744Z,9.05
2023-09-27T03:22:14.281Z,8.48
2023-09-27T03:24:40.702Z,9.25
2023-09-27T03:27:09.693Z,8.45
2023-09-27T03:29:36.667Z,8.85
2023-09-27T03:32:03.557Z,7.90
2023-09-27T03:34:32.626Z,8.20
2023-09-27T03:36:59.110Z,7.88
2023-09-27T03:39:26.382Z,11.02
2023-09-27T03:44:19.223Z,7.85
2023-09-27T03:46:45.821Z,8.63
2023-09-27T03:49:14.047Z,8.43
2023-09-27T03:51:40.522Z,8.30
2023-09-27T03:54:07.258Z,8.32
2023-09-27T03:56:33.818Z,8.82
2023-09-27T03:59:00.386Z,8.73
2023-09-27T04:01:27.288Z,7.90
2023-09-27T04:03:53.795Z,8.50
2023-09-27T04:06:21.106Z,8.35
2023-09-27T04:11:14.005Z,8.35
2023-09-27T04:13:41.099Z,8.90
2023-09-27T04:16:07.574Z,8.25
2023-09-27T04:18:34.126Z,7.75
2023-09-27T04:21:09.736Z,8.23
2023-09-27T04:23:37.479Z,7.65
2023-09-27T04:26:07.636Z,7.25
2023-09-27T04:28:34.938Z,7.07
2023-09-27T04:33:28.118Z,7.10
2023-09-27T04:35:54.642Z,6.80
2023-09-27T04:38:21.106Z,6.75
2023-09-27T04:40:47.928Z,7.15
2023-09-27T04:43:14.416Z,7.20
2023-09-27T04:45:40.991Z,7.30
2023-09-27T04:48:07.515Z,6.88
2023-09-27T04:50:35.191Z,6.35
2023-09-27T04:53:01.735Z,6.55
2023-09-27T04:55:29.055Z,6.55
2023-09-27T05:00:23.180Z,6.85
2023-09-27T05:02:51.307Z,7.97
2023-09-27T05:05:18.031Z,6.60
2023-09-27T05:07:44.707Z,7.45
2023-09-27T05:10:11.294Z,7.35
2023-09-27T05:12:38.239Z,8.00
2023-09-27T05:15:05.260Z,8.35
2023-09-27T05:17:31.719Z,8.63
2023-09-27T05:19:58.842Z,7.53
2023-09-27T05:22:25.334Z,7.90
2023-09-27T05:24:51.878Z,8.10
2023-09-27T05:27:18.545Z,7.82
2023-09-27T05:29:46.238Z,8.07
2023-09-27T05:32:13.609Z,8.55
2023-09-27T05:34:40.079Z,8.20
2023-09-27T05:37:06.572Z,8.05
2023-09-27T05:39:33.254Z,8.75
2023-09-27T05:41:59.731Z,9.25
2023-09-27T05:44:26.278Z,8.95
2023-09-27T05:46:52.895Z,8.70
2023-09-27T05:49:19.880Z,8.98
2023-09-27T05:51:46.615Z,8.23
2023-09-27T05:54:13.150Z,8.68
2023-09-27T05:56:39.692Z,10.85
2023-09-27T05:59:12.692Z,9.43
2023-09-27T06:01:40.403Z,9.68
2023-09-27T06:04:07.933Z,9.65
2023-09-27T06:06:35.600Z,8.85
2023-09-27T06:09:02.034Z,8.77
2023-09-27T06:11:28.468Z,9.52
2023-09-27T06:13:55.494Z,9.68
2023-09-27T06:16:22.835Z,9.15
2023-09-27T06:18:49.338Z,9.50
2023-09-27T06:21:15.774Z,9.55
2023-09-27T06:23:42.512Z,11.02
2023-09-27T06:26:10.340Z,10.15
2023-09-27T06:28:40.426Z,11.98
2023-09-27T06:31:07.391Z,8.88
2023-09-27T06:33:40.414Z,9.52
2023-09-27T06:36:08.945Z,10.07
2023-09-27T06:38:35.629Z,10.23
2023-09-27T06:41:02.393Z,10.18
2023-09-27T06:43:31.135Z,10.43
2023-09-27T06:45:57.616Z,10.48
2023-09-27T06:48:27.374Z,10.23
2023-09-27T06:50:53.946Z,10.50
2023-09-27T06:53:24.107Z,10.82
2023-09-27T06:55:54.715Z,11.05
2023-09-27T06:58:26.821Z,11.55
2023-09-27T07:00:53.785Z,11.32
2023-09-27T07:03:25.888Z,11.02
2023-09-27T07:05:53.057Z,12.07
2023-09-27T07:08:19.670Z,11.93
2023-09-27T07:10:46.314Z,11.82
2023-09-27T07:13:12.733Z,13.95
2023-09-27T07:15:39.395Z,11.25
2023-09-27T07:18:07.193Z,11.43
2023-09-27T07:20:37.942Z,11.60
2023-09-27T07:23:08.831Z,11.75
2023-09-27T07:25:39.281Z,11.50
2023-09-27T07:28:07.077Z,11.60
2023-09-27T07:30:34.886Z,11.98
2023-09-27T07:33:04.905Z,12.13
2023-09-27T07:35:34.571Z,12.75
2023-09-27T07:38:02.171Z,12.32
2023-09-27T07:40:28.798Z,13.45
2023-09-27T07:42:55.360Z,12.55
2023-09-27T07:45:29.475Z,12.32
2023-09-27T07:47:56.937Z,12.30
2023-09-27T07:50:43.537Z,13.85
2023-09-27T07:53:10.126Z,12.63
2023-09-27T07:55:52.005Z,12.82
2023-09-27T07:58:18.692Z,13.68
2023-09-27T08:00:45.459Z,13.60
2023-09-27T08:03:15.719Z,13.57
2023-09-27T08:05:46.207Z,15.77
2023-09-27T08:08:14.809Z,15.55
2023-09-27T08:10:44.552Z,13.85
2023-09-27T08:13:16.243Z,14.18
2023-09-27T08:15:43.908Z,14.90
2023-09-27T08:18:10.469Z,14.32
2023-09-27T08:20:37.161Z,14.27
2023-09-27T08:23:04.306Z,14.02
2023-09-27T08:25:30.972Z,14.13
2023-09-27T08:27:57.610Z,14.02
2023-09-27T08:30:24.116Z,14.60
2023-09-27T08:32:52.588Z,14.60
2023-09-27T08:35:19.624Z,15.63
2023-09-27T08:37:46.359Z,15.02
2023-09-27T08:40:16.304Z,15.30
2023-09-27T08:42:44.049Z,15.65
2023-09-27T08:45:15.127Z,16.17
2023-09-27T08:47:44.859Z,15.10
2023-09-27T08:50:15.187Z,16.73
2023-09-27T08:52:50.312Z,15.50
2023-09-27T08:55:18.046Z,15.77
2023-09-27T08:57:52.839Z,15.93
2023-09-27T09:00:22.985Z,15.80
2023-09-27T09:02:53.595Z,16.38
2023-09-27T09:05:22.029Z,15.50
2023-09-27T09:07:48.617Z,16.83
2023-09-27T09:10:16.680Z,14.85
2023-09-27T09:12:44.616Z,18.65
2023-09-27T09:15:16.336Z,16.15
2023-09-27T09:17:49.497Z,14.68
2023-09-27T09:22:55.843Z,14.77
2023-09-27T09:25:24.272Z,14.48
2023-09-27T09:28:04.170Z,14.05
2023-09-27T09:30:38.762Z,13.70
2023-09-27T09:33:17.953Z,13.27
2023-09-27T09:35:44.696Z,13.18
2023-09-27T09:38:11.198Z,13.38
2023-09-27T09:40:59.296Z,13.88
2023-09-27T09:43:34.877Z,13.25
2023-09-27T09:46:04.832Z,12.60
2023-09-27T09:48:34.625Z,13.13
2023-09-27T09:51:08.834Z,12.00
2023-09-27T09:53:42.549Z,11.23
2023-09-27T09:58:48.814Z,12.20
2023-09-27T10:01:22.481Z,11.73
2023-09-27T10:03:52.795Z,11.98
2023-09-27T10:06:40.905Z,10.82
2023-09-27T10:09:15.198Z,12.32
2023-09-27T10:11:44.253Z,12.02
2023-09-27T10:14:11.900Z,11.38
2023-09-27T10:16:38.971Z,12.13
2023-09-27T10:19:06.632Z,12.60
2023-09-27T10:21:33.392Z,12.25
2023-09-27T10:24:02.432Z,12.48
2023-09-27T10:26:29.689Z,11.88
2023-09-27T10:29:02.097Z,12.35
2023-09-27T10:31:29.582Z,11.70
2023-09-27T10:33:56.309Z,12.25
2023-09-27T10:36:22.677Z,12.65
2023-09-27T10:38:55.291Z,12.40
2023-09-27T10:41:34.275Z,12.55
2023-09-27T10:44:04.261Z,12.50
2023-09-27T10:46:48.804Z,12.80
2023-09-27T10:49:38.280Z,12.05
2023-09-27T10:52:27.631Z,12.85
2023-09-27T10:54:54.086Z,12.88
2023-09-27T10:57:22.591Z,11.95
2023-09-27T10:59:50.798Z,12.95
2023-09-27T11:02:31.454Z,11.88
2023-09-27T11:04:57.936Z,12.50
2023-09-27T11:07:42.565Z,11.45
2023-09-27T11:10:09.103Z,11.30
2023-09-27T11:12:35.648Z,12.10
2023-09-27T11:15:02.584Z,11.23
2023-09-27T11:17:29.980Z,11.57
2023-09-27T11:19:56.718Z,10.13
2023-09-27T11:22:29.898Z,9.63
2023-09-27T11:24:57.021Z,10.57
2023-09-27T11:27:24.050Z,9.18
2023-09-27T11:29:56.653Z,9.13
2023-09-27T11:32:23.486Z,8.55
2023-09-27T11:37:24.413Z,7.43
2023-09-27T11:39:56.164Z,7.43
2023-09-27T11:42:24.264Z,7.45
2023-09-27T11:45:13.762Z,6.53
2023-09-27T11:47:47.448Z,6.60
2023-09-27T11:50:18.865Z,6.10
2023-09-27T11:52:48.122Z,6.00
2023-09-27T11:55:15.642Z,5.30
2023-09-27T11:57:42.499Z,5.30
2023-09-27T12:02:43.739Z,5.80
2023-09-27T12:05:19.650Z,5.00
2023-09-27T12:07:48.373Z,4.60
2023-09-27T12:10:14.893Z,4.53
2023-09-27T12:12:41.320Z,3.85
2023-09-27T12:15:08.301Z,3.88
2023-09-27T12:17:34.927Z,4.22
2023-09-27T12:20:01.454Z,3.90
2023-09-27T12:22:29.518Z,3.78
2023-09-27T12:24:56.075Z,3.83
2023-09-27T12:27:22.522Z,3.97
2023-09-27T12:29:49.716Z,3.35
2023-09-27T12:32:16.814Z,4.20
2023-09-27T12:34:43.321Z,4.15
2023-09-27T12:37:09.741Z,3.80
2023-09-27T12:39:38.684Z,3.95
2023-09-27T12:42:05.307Z,3.72
2023-09-27T12:44:32.902Z,3.50
2023-09-27T12:46:59.383Z,3.53
2023-09-27T12:49:26.575Z,4.20
2023-09-27T12:51:53.320Z,3.45
2023-09-27T12:54:20.446Z,3.33
2023-09-27T12:56:46.989Z,3.63
2023-09-27T12:59:13.535Z,3.25
2023-09-27T13:01:41.022Z,4.63
2023-09-27T13:04:08.285Z,3.95
2023-09-27T13:06:35.062Z,3.40
2023-09-27T13:09:04.121Z,3.60
2023-09-27T13:11:30.668Z,4.00
2023-09-27T13:13:57.096Z,3.83
2023-09-27T13:16:23.548Z,4.05
2023-09-27T13:18:53.380Z,4.35
2023-09-27T13:21:21.296Z,4.38
2023-09-27T13:23:47.724Z,4.03
2023-09-27T13:26:14.587Z,4.30
2023-09-27T13:31:07.481Z,3.53
2023-09-27T13:33:34.250Z,3.88
2023-09-27T13:36:01.059Z,4.22
2023-09-27T13:38:27.900Z,3.85
2023-09-27T13:40:54.576Z,3.80
2023-09-27T13:43:21.426Z,3.50
2023-09-27T13:48:15.149Z,3.35
2023-09-27T13:50:41.759Z,3.20
2023-09-27T13:53:08.323Z,3.28
2023-09-27T13:55:34.993Z,3.78
2023-09-27T13:58:01.466Z,3.33
2023-09-27T14:00:28.001Z,3.60
2023-09-27T14:02:54.889Z,3.40
2023-09-27T14:05:21.480Z,3.95
2023-09-27T14:07:48.039Z,3.83
2023-09-27T14:10:14.494Z,2.95
2023-09-27T14:12:41.916Z,4.03
2023-09-27T14:15:09.823Z,3.88
2023-09-27T14:17:36.706Z,4.10
2023-09-27T14:20:03.624Z,4.60
2023-09-27T14:24:57.268Z,3.72
2023-09-27T14:27:23.747Z,4.35
2023-09-27T14:29:50.223Z,4.53
2023-09-27T14:32:17.997Z,4.68
2023-09-27T14:37:23.479Z,3.58
2023-09-27T14:39:49.961Z,3.92
2023-09-27T14:42:17.172Z,4.20
2023-09-27T14:44:43.786Z,4.72
2023-09-27T14:47:10.288Z,3.78
2023-09-27T14:49:36.777Z,4.72
2023-09-27T14:52:03.241Z,4.50
2023-09-27T14:54:29.619Z,3.95
2023-09-27T14:56:58.367Z,4.55
2023-09-27T14:59:24.838Z,4.10
2023-09-27T15:01:54.148Z,4.65
2023-09-27T15:04:20.848Z,4.30
2023-09-27T15:06:47.361Z,5.13
2023-09-27T15:09:13.812Z,4.32
2023-09-27T15:11:40.228Z,4.45
2023-09-27T15:14:06.646Z,5.72
2023-09-27T15:16:35.003Z,4.85
2023-09-27T15:19:01.688Z,4.60
2023-09-27T15:21:28.152Z,4.47
2023-09-27T15:23:54.698Z,4.32
2023-09-27T15:28:49.167Z,4.13
2023-09-27T15:31:15.807Z,5.30
2023-09-27T15:33:42.283Z,4.90
2023-09-27T15:36:09.190Z,4.53
2023-09-27T15:38:35.767Z,4.63
2023-09-27T15:41:02.228Z,4.78
2023-09-27T15:43:30.556Z,5.13
2023-09-27T15:46:04.433Z,5.18
2023-09-27T15:48:34.864Z,5.78
2023-09-27T15:51:06.475Z,6.07
2023-09-27T15:53:33.662Z,5.22
2023-09-27T15:56:01.100Z,6.60
2023-09-27T15:58:27.912Z,6.07
2023-09-27T16:03:21.764Z,5.95
2023-09-27T16:05:49.774Z,5.85
2023-09-27T16:08:19.984Z,6.15
2023-09-27T16:10:54.709Z,6.22
2023-09-27T16:13:23.185Z,6.15
2023-09-27T16:15:51.551Z,6.10
2023-09-27T16:18:19.737Z,6.35
2023-09-27T16:20:47.780Z,6.47
2023-09-27T16:23:15.305Z,6.68
2023-09-27T16:25:42.343Z,6.00
2023-09-27T16:30:36.258Z,5.97
2023-09-27T16:33:05.649Z,5.88
2023-09-27T16:35:38.280Z,6.60
2023-09-27T16:38:05.018Z,5.70
2023-09-27T16:40:31.883Z,5.45
2023-09-27T16:45:25.426Z,5.05
2023-09-27T16:47:52.027Z,5.82
2023-09-27T16:50:18.501Z,5.97
2023-09-27T16:52:44.996Z,6.13
2023-09-27T16:55:12.296Z,5.55
2023-09-27T16:57:39.789Z,5.55
2023-09-27T17:00:11.448Z,5.40
2023-09-27T17:02:39.056Z,6.38
2023-09-27T17:05:06.754Z,5.97
2023-09-27T17:07:36.070Z,5.70
2023-09-27T17:10:04.751Z,6.85
2023-09-27T17:12:31.372Z,6.30
2023-09-27T17:14:57.896Z,5.13
2023-09-27T17:17:24.389Z,6.25
2023-09-27T17:19:50.926Z,5.82
2023-09-27T17:22:17.537Z,6.60
2023-09-27T17:24:44.082Z,6.78
2023-09-27T17:27:10.682Z,6.03
2023-09-27T17:29:37.118Z,5.93
2023-09-27T17:32:03.654Z,6.60
2023-09-27T17:34:30.554Z,6.25
2023-09-27T17:36:57.121Z,6.93
2023-09-27T17:39:24.105Z,7.00
2023-09-27T17:41:51.067Z,6.78
2023-09-27T17:44:17.460Z,6.35
2023-09-27T17:46:43.894Z,7.63
2023-09-27T17:49:10.418Z,6.57
2023-09-27T17:51:37.983Z,6.20
2023-09-27T17:54:07.015Z,6.93
2023-09-27T17:56:34.223Z,6.50
2023-09-27T17:59:00.632Z,6.85
2023-09-27T18:01:27.333Z,7.05
2023-09-27T18:03:54.184Z,6.57
2023-09-27T18:06:21.084Z,6.75
2023-09-27T18:08:47.539Z,6.97
2023-09-27T18:11:15.807Z,6.45
2023-09-27T18:13:43.411Z,7.43
2023-09-27T18:16:14.511Z,6.97
2023-09-27T18:18:40.939Z,6.80
2023-09-27T18:21:07.389Z,7.50
2023-09-27T18:23:33.851Z,7.35
2023-09-27T18:26:00.296Z,7.13
2023-09-27T18:28:26.776Z,6.80
2023-09-27T18:30:53.281Z,7.85
2023-09-27T18:33:19.684Z,7.05
2023-09-27T18:35:46.163Z,6.95
2023-09-27T18:38:12.643Z,7.32
2023-09-27T18:40:39.149Z,6.82
2023-09-27T18:43:05.583Z,6.90
2023-09-27T18:45:32.087Z,7.03
2023-09-27T18:47:58.734Z,7.07
2023-09-27T18:50:25.437Z,7.25
2023-09-27T18:52:51.977Z,6.78
2023-09-27T18:55:18.472Z,7.03
2023-09-27T18:57:45.044Z,7.22
2023-09-27T19:00:12.640Z,7.40
2023-09-27T19:02:39.265Z,7.53
2023-09-27T19:05:06.726Z,8.10
2023-09-27T19:07:33.826Z,7.75
2023-09-27T19:12:26.697Z,7.93
2023-09-27T19:14:53.249Z,8.93
2023-09-27T19:17:19.730Z,8.70
2023-09-27T19:19:46.188Z,8.85
2023-09-27T19:22:12.692Z,9.40
2023-09-27T19:24:39.397Z,8.65
2023-09-27T19:27:05.917Z,9.15
2023-09-27T19:29:33.322Z,8.60
2023-09-27T19:31:59.870Z,9.25
2023-09-27T19:34:26.491Z,8.10
2023-09-27T19:36:53.038Z,8.32
2023-09-27T19:39:19.647Z,10.18
2023-09-27T19:41:46.792Z,9.45
2023-09-27T19:44:13.391Z,8.68
2023-09-27T19:46:39.953Z,8.23
2023-09-27T19:49:06.547Z,8.50
2023-09-27T19:51:33.177Z,8.23
2023-09-27T19:54:01.700Z,8.90
2023-09-27T19:56:28.320Z,8.85
2023-09-27T19:58:54.882Z,9.00
2023-09-27T20:01:32.996Z,8.68
2023-09-27T20:03:59.887Z,8.90
2023-09-27T20:06:26.704Z,8.95
2023-09-27T20:08:53.200Z,8.63
2023-09-27T20:11:20.758Z,9.02
2023-09-27T20:13:47.956Z,9.02
2023-09-27T20:16:15.404Z,9.52
2023-09-27T20:18:41.908Z,9.63
2023-09-27T20:21:08.354Z,11.13
2023-09-27T20:23:34.989Z,10.18
2023-09-27T20:26:02.691Z,9.57
2023-09-27T20:28:29.299Z,10.07
2023-09-27T20:30:56.086Z,10.30
2023-09-27T20:33:22.741Z,10.48
2023-09-27T20:35:49.406Z,10.55
2023-09-27T20:38:16.098Z,10.15
2023-09-27T20:40:42.842Z,11.75
2023-09-27T20:43:09.391Z,10.60
2023-09-27T20:45:36.089Z,10.93
2023-09-27T20:48:02.885Z,12.20
2023-09-27T20:50:29.507Z,11.05
2023-09-27T20:52:56.065Z,10.32
2023-09-27T20:55:22.680Z,11.02
2023-09-27T20:57:51.537Z,10.55
2023-09-27T21:00:20.543Z,10.40
2023-09-27T21:02:47.078Z,10.60
2023-09-27T21:05:13.726Z,9.95
2023-09-27T21:07:40.299Z,10.60
2023-09-27T21:10:07.722Z,10.80
2023-09-27T21:12:34.565Z,9.60
2023-09-27T21:15:02.149Z,10.50
2023-09-27T21:17:28.991Z,10.68
2023-09-27T21:19:55.637Z,9.45
2023-09-27T21:22:22.154Z,10.32
2023-09-27T21:24:48.632Z,10.02
2023-09-27T21:27:15.174Z,10.57
2023-09-27T21:29:41.988Z,10.15
2023-09-27T21:32:08.527Z,9.88
2023-09-27T21:34:35.075Z,8.98
2023-09-27T21:37:01.531Z,9.20
2023-09-27T21:39:27.997Z,9.60
2023-09-27T21:41:54.671Z,9.05
2023-09-27T21:44:24.064Z,8.48
2023-09-27T21:46:54.091Z,7.18
2023-09-27T21:49:21.458Z,8.60
2023-09-27T21:51:48.954Z,7.05
2023-09-27T21:54:15.847Z,7.10
2023-09-27T21:56:43.651Z,7.28
2023-09-27T21:59:10.146Z,7.03
2023-09-27T22:01:37.916Z,5.88
2023-09-27T22:04:04.611Z,6.35
2023-09-27T22:06:31.136Z,5.22
2023-09-27T22:08:58.337Z,5.90
2023-09-27T22:11:25.603Z,5.38
2023-09-27T22:13:52.520Z,6.18
2023-09-27T22:16:22.732Z,5.50
2023-09-27T22:18:49.921Z,4.80
2023-09-27T22:21:28.034Z,5.47
2023-09-27T22:23:57.429Z,5.70
2023-09-27T22:26:26.204Z,5.57
2023-09-27T22:28:56.546Z,5.55
2023-09-27T22:31:32.150Z,5.68
2023-09-27T22:34:05.703Z,5.45
2023-09-27T22:36:32.809Z,4.85
2023-09-27T22:39:09.858Z,5.60
2023-09-27T22:41:40.698Z,5.55
2023-09-27T22:44:19.980Z,4.88
2023-09-27T22:46:51.568Z,5.07
2023-09-27T22:49:22.925Z,5.75
2023-09-27T22:51:50.258Z,6.05
2023-09-27T22:54:18.948Z,4.90
2023-09-27T22:56:47.190Z,5.35
2023-09-27T22:59:14.605Z,6.90
2023-09-27T23:01:43.783Z,5.57
2023-09-27T23:04:15.724Z,5.03
2023-09-27T23:07:01.638Z,5.18
2023-09-27T23:09:35.262Z,5.35
2023-09-27T23:12:20.710Z,5.10
2023-09-27T23:15:06.635Z,5.22
2023-09-27T23:17:56.397Z,5.50
2023-09-27T23:20:29.763Z,5.07
2023-09-27T23:22:58.636Z,5.25
2023-09-27T23:25:44.195Z,4.53
2023-09-27T23:28:40.140Z,4.82
2023-09-27T23:31:10.897Z,4.20
2023-09-27T23:33:44.552Z,4.53
2023-09-27T23:36:26.714Z,5.47
2023-09-27T23:38:57.305Z,3.97
2023-09-27T23:41:31.732Z,4.43
2023-09-27T23:44:02.203Z,4.53
2023-09-27T23:46:28.973Z,3.85
2023-09-27T23:48:55.518Z,4.90
2023-09-27T23:51:25.393Z,3.80
2023-09-27T23:53:53.127Z,3.75
2023-09-27T23:56:23.844Z,3.63
2023-09-27T23:58:53.174Z,5.10
